Time;durP1;ratioP1;P1;durP2;ratioP2;P2;SDS_P1;SDS_P2;PMS_P1;PMS_P2;Temp;Humidity;BMP_temperature;BMP_pressure;BME280_temperature;BME280_humidity;BME280_pressure;Samples;Min_cycle;Max_cycle;Signal;HPM_P1;HPM_P2
2022/02/12 00:00:01;;;;;;;5.68;1.60;;;;;;;;;;5012869;28;20105;-65
2022/02/12 00:02:27;;;;;;;3.30;1.67;;;;;;;;;;5012637;28;20033;-65
2022/02/12 00:04:53;;;;;;;4.88;1.70;;;;;;;;;;5012846;28;20026;-65
2022/02/12 00:07:19;;;;;;;2.47;1.60;;;;;;;;;;5012677;28;20049;-65
2022/02/12 00:09:45;;;;;;;6.50;1.70;;;;;;;;;;5012533;28;20026;-66
2022/02/12 00:12:11;;;;;;;5.00;1.70;;;;;;;;;;5012494;28;20057;-64
2022/02/12 00:14:37;;;;;;;5.97;1.70;;;;;;;;;;5012484;28;20049;-65
2022/02/12 00:17:03;;;;;;;3.45;1.42;;;;;;;;;;5012370;28;20077;-65
2022/02/12 00:19:29;;;;;;;6.20;1.70;;;;;;;;;;5012330;28;20018;-65
2022/02/12 00:21:55;;;;;;;4.93;1.80;;;;;;;;;;5012206;28;20056;-65
2022/02/12 00:24:21;;;;;;;5.82;1.85;;;;;;;;;;5012119;28;20033;-65
2022/02/12 00:26:47;;;;;;;6.25;1.90;;;;;;;;;;5012258;28;20037;-63
2022/02/12 00:29:13;;;;;;;4.13;1.98;;;;;;;;;;5012063;28;20117;-65
2022/02/12 00:31:40;;;;;;;7.70;2.17;;;;;;;;;;5011842;28;20036;-63
2022/02/12 00:34:06;;;;;;;3.38;1.67;;;;;;;;;;5012003;28;20505;-64
2022/02/12 00:36:32;;;;;;;4.80;1.90;;;;;;;;;;5011995;28;20069;-64
2022/02/12 00:38:58;;;;;;;5.43;1.80;;;;;;;;;;5012003;28;20058;-65
2022/02/12 00:41:24;;;;;;;6.30;2.13;;;;;;;;;;5011381;28;20029;-64
2022/02/12 00:43:50;;;;;;;6.30;2.00;;;;;;;;;;5011978;28;20026;-64
2022/02/12 00:46:16;;;;;;;4.20;1.80;;;;;;;;;;5012037;28;20133;-64
2022/02/12 00:48:42;;;;;;;4.32;2.03;;;;;;;;;;5011947;28;20022;-65
2022/02/12 00:51:08;;;;;;;4.53;2.03;;;;;;;;;;5011886;28;20042;-63
2022/02/12 00:53:34;;;;;;;4.15;1.88;;;;;;;;;;5011796;28;20030;-63
2022/02/12 00:56:00;;;;;;;3.75;2.05;;;;;;;;;;5011760;28;20041;-65
2022/02/12 00:58:26;;;;;;;7.07;2.80;;;;;;;;;;5012060;28;20100;-64
2022/02/12 01:00:52;;;;;;;5.20;2.50;;;;;;;;;;5011782;28;20405;-64
2022/02/12 01:03:18;;;;;;;6.53;2.88;;;;;;;;;;5011875;28;20569;-64
2022/02/12 01:05:44;;;;;;;6.63;2.85;;;;;;;;;;5011962;28;20041;-64
2022/02/12 01:08:10;;;;;;;6.97;3.30;;;;;;;;;;5011757;28;20033;-64
2022/02/12 01:10:36;;;;;;;5.85;3.10;;;;;;;;;;5011708;28;20079;-65
2022/02/12 01:13:03;;;;;;;4.93;2.80;;;;;;;;;;5011389;28;20111;-65
2022/02/12 01:15:29;;;;;;;5.82;2.72;;;;;;;;;;5011737;28;20038;-65
2022/02/12 01:17:55;;;;;;;5.75;2.72;;;;;;;;;;5011963;28;20026;-65
2022/02/12 01:20:21;;;;;;;7.60;3.00;;;;;;;;;;5011854;28;20037;-63
2022/02/12 01:22:48;;;;;;;8.57;2.90;;;;;;;;;;5011946;28;20096;-65
2022/02/12 01:25:15;;;;;;;4.45;2.35;;;;;;;;;;5011376;28;20034;-65
2022/02/12 01:27:41;;;;;;;7.05;2.70;;;;;;;;;;5011546;28;20477;-65
2022/02/12 01:30:08;;;;;;;5.97;2.70;;;;;;;;;;5011108;28;20033;-65
2022/02/12 01:32:34;;;;;;;5.13;2.72;;;;;;;;;;5011302;28;20049;-65
2022/02/12 01:35:00;;;;;;;7.07;2.25;;;;;;;;;;5011189;28;20058;-65
2022/02/12 01:37:27;;;;;;;4.65;2.50;;;;;;;;;;5011230;28;20030;-65
2022/02/12 01:39:53;;;;;;;6.78;2.72;;;;;;;;;;5011368;28;20022;-65
2022/02/12 01:42:19;;;;;;;6.03;2.45;;;;;;;;;;5011342;28;20025;-65
2022/02/12 01:44:45;;;;;;;4.68;2.50;;;;;;;;;;5010892;28;20042;-65
2022/02/12 01:47:11;;;;;;;6.38;3.08;;;;;;;;;;5011121;28;20026;-66
2022/02/12 01:49:38;;;;;;;4.68;2.63;;;;;;;;;;5011119;28;20064;-65
2022/02/12 01:52:11;;;;;;;4.72;2.58;;;;;;;;;;5013292;28;20686;-63
2022/02/12 01:54:38;;;;;;;6.15;2.20;;;;;;;;;;5015021;28;20025;-64
2022/02/12 01:57:05;;;;;;;5.00;2.25;;;;;;;;;;5015117;28;20026;-64
2022/02/12 01:59:31;;;;;;;5.25;2.60;;;;;;;;;;5014856;28;20065;-65
2022/02/12 02:01:58;;;;;;;3.55;2.13;;;;;;;;;;5014971;28;20172;-65
2022/02/12 02:04:24;;;;;;;5.93;2.90;;;;;;;;;;5015222;28;20483;-65
2022/02/12 02:06:50;;;;;;;4.18;2.40;;;;;;;;;;5015291;28;20056;-65
2022/02/12 02:09:17;;;;;;;4.00;1.90;;;;;;;;;;5014985;28;20026;-66
2022/02/12 02:11:44;;;;;;;4.68;2.20;;;;;;;;;;5014839;28;20050;-65
2022/02/12 02:14:13;;;;;;;4.28;2.10;;;;;;;;;;5014779;28;20041;-66
2022/02/12 02:16:40;;;;;;;5.50;2.85;;;;;;;;;;5014573;28;20100;-65
2022/02/12 02:19:07;;;;;;;4.88;2.55;;;;;;;;;;5014888;28;20104;-66
2022/02/12 02:21:35;;;;;;;5.88;2.58;;;;;;;;;;5015091;28;20053;-65
2022/02/12 02:24:01;;;;;;;5.50;2.47;;;;;;;;;;5014688;28;20157;-66
2022/02/12 02:26:27;;;;;;;4.90;2.08;;;;;;;;;;5014805;28;20033;-66
2022/02/12 02:28:53;;;;;;;5.03;2.22;;;;;;;;;;5013423;28;20030;-65
2022/02/12 02:31:19;;;;;;;6.35;2.35;;;;;;;;;;5014943;28;20018;-66
2022/02/12 02:33:46;;;;;;;5.15;2.25;;;;;;;;;;5014684;28;20071;-66
2022/02/12 02:36:14;;;;;;;4.32;1.90;;;;;;;;;;5014557;28;20474;-65
2022/02/12 02:38:41;;;;;;;4.65;2.10;;;;;;;;;;5014630;28;20129;-66
2022/02/12 02:41:07;;;;;;;4.55;2.35;;;;;;;;;;5014702;28;20030;-65
2022/02/12 02:43:34;;;;;;;2.92;2.10;;;;;;;;;;5015038;28;20022;-66
2022/02/12 02:46:00;;;;;;;4.20;2.00;;;;;;;;;;5014498;28;20112;-65
2022/02/12 02:48:26;;;;;;;4.30;1.92;;;;;;;;;;5014679;28;20030;-65
2022/02/12 02:56:22;;;;;;;4.45;2.03;;;;;;;;;;5014275;28;20049;-68
2022/02/12 02:58:55;;;;;;;4.10;1.83;;;;;;;;;;5014006;28;20076;-67
2022/02/12 03:01:22;;;;;;;5.45;2.00;;;;;;;;;;5014726;28;20022;-65
2022/02/12 03:03:52;;;;;;;3.53;1.50;;;;;;;;;;5013862;28;20026;-65
2022/02/12 03:06:19;;;;;;;4.45;2.10;;;;;;;;;;5014012;28;20033;-65
2022/02/12 03:08:45;;;;;;;3.75;1.42;;;;;;;;;;5013864;28;20033;-64
2022/02/12 03:11:12;;;;;;;5.35;1.83;;;;;;;;;;5013782;28;20482;-64
2022/02/12 03:13:39;;;;;;;4.43;1.83;;;;;;;;;;5013818;28;20057;-64
2022/02/12 03:16:08;;;;;;;5.55;1.88;;;;;;;;;;5013389;28;20046;-66
2022/02/12 03:18:34;;;;;;;6.22;2.13;;;;;;;;;;5013649;28;20018;-66
2022/02/12 03:21:00;;;;;;;3.72;1.80;;;;;;;;;;5013683;28;20032;-65
2022/02/12 03:23:26;;;;;;;3.92;1.52;;;;;;;;;;5013690;28;20049;-64
2022/02/12 03:25:52;;;;;;;3.88;1.70;;;;;;;;;;5013534;28;20029;-64
2022/02/12 03:28:18;;;;;;;4.20;1.52;;;;;;;;;;5013456;28;20040;-64
2022/02/12 03:30:46;;;;;;;5.22;1.75;;;;;;;;;;5013386;28;20030;-64
2022/02/12 03:33:12;;;;;;;2.75;1.70;;;;;;;;;;5013231;28;20532;-64
2022/02/12 03:35:39;;;;;;;4.65;1.58;;;;;;;;;;5013355;28;20128;-64
2022/02/12 03:38:12;;;;;;;3.25;1.48;;;;;;;;;;5013287;28;20017;-64
2022/02/12 03:40:40;;;;;;;2.92;1.63;;;;;;;;;;5013593;28;20026;-64
2022/02/12 03:43:06;;;;;;;4.60;1.48;;;;;;;;;;5013171;28;20072;-64
2022/02/12 03:45:32;;;;;;;4.25;1.60;;;;;;;;;;5012920;28;20107;-63
2022/02/12 03:47:58;;;;;;;3.70;1.73;;;;;;;;;;5013227;28;20034;-63
2022/02/12 03:50:27;;;;;;;4.25;2.20;;;;;;;;;;5013464;28;20037;-66
2022/02/12 03:52:53;;;;;;;6.07;2.20;;;;;;;;;;5013067;28;20018;-64
2022/02/12 03:55:19;;;;;;;3.28;1.45;;;;;;;;;;5013119;28;20085;-66
2022/02/12 03:57:47;;;;;;;5.75;1.58;;;;;;;;;;5013248;28;20022;-65
2022/02/12 04:00:14;;;;;;;5.07;1.83;;;;;;;;;;5013249;28;20112;-66
2022/02/12 04:02:40;;;;;;;3.88;1.70;;;;;;;;;;5012966;28;20471;-65
2022/02/12 04:05:07;;;;;;;3.50;1.70;;;;;;;;;;5012993;28;20026;-65
2022/02/12 04:07:37;;;;;;;8.35;1.67;;;;;;;;;;5012931;28;20426;-65
2022/02/12 04:10:03;;;;;;;2.95;1.58;;;;;;;;;;5012735;28;20067;-65
2022/02/12 04:12:29;;;;;;;3.08;1.65;;;;;;;;;;5012826;28;20029;-65
2022/02/12 04:14:56;;;;;;;4.95;1.20;;;;;;;;;;5011260;28;20152;-65
2022/02/12 04:17:24;;;;;;;4.05;1.67;;;;;;;;;;5012657;28;20077;-65
2022/02/12 04:19:50;;;;;;;3.45;1.50;;;;;;;;;;5012662;28;20021;-65
2022/02/12 04:22:16;;;;;;;3.47;1.88;;;;;;;;;;5012781;28;20048;-65
2022/02/12 04:24:42;;;;;;;5.95;1.50;;;;;;;;;;5012574;28;20109;-65
2022/02/12 04:27:09;;;;;;;4.63;1.60;;;;;;;;;;5012408;28;20041;-65
2022/02/12 04:29:35;;;;;;;2.95;1.40;;;;;;;;;;5012697;28;20034;-65
2022/02/12 04:32:01;;;;;;;5.70;1.88;;;;;;;;;;5012624;28;20041;-65
2022/02/12 04:34:27;;;;;;;4.55;1.50;;;;;;;;;;5012529;28;20025;-65
2022/02/12 04:36:53;;;;;;;4.97;1.60;;;;;;;;;;5012296;28;20052;-65
2022/02/12 04:39:20;;;;;;;4.55;1.77;;;;;;;;;;5011893;28;20026;-65
2022/02/12 04:41:46;;;;;;;3.65;1.60;;;;;;;;;;5012008;28;20026;-65
2022/02/12 04:44:12;;;;;;;4.85;1.80;;;;;;;;;;5012122;28;20041;-65
2022/02/12 04:46:38;;;;;;;3.28;1.52;;;;;;;;;;5011973;28;20270;-65
2022/02/12 04:49:05;;;;;;;3.58;1.35;;;;;;;;;;5012039;28;20382;-65
2022/02/12 04:51:31;;;;;;;3.28;1.20;;;;;;;;;;5011941;28;20034;-65
2022/02/12 04:53:58;;;;;;;6.18;1.70;;;;;;;;;;5012168;28;20084;-65
2022/02/12 04:56:25;;;;;;;4.07;1.88;;;;;;;;;;5011682;28;20033;-65
2022/02/12 04:58:51;;;;;;;4.88;1.55;;;;;;;;;;5012016;28;20494;-65
2022/02/12 05:01:20;;;;;;;8.48;1.88;;;;;;;;;;5011739;28;20040;-65
2022/02/12 05:03:49;;;;;;;4.60;1.83;;;;;;;;;;5011578;28;20026;-65
2022/02/12 05:06:18;;;;;;;4.05;1.90;;;;;;;;;;5011814;28;20026;-65
2022/02/12 05:08:44;;;;;;;5.18;1.70;;;;;;;;;;5011564;28;20459;-65
2022/02/12 05:11:10;;;;;;;4.28;1.75;;;;;;;;;;5011628;28;20536;-65
2022/02/12 05:13:36;;;;;;;3.92;2.08;;;;;;;;;;5011852;28;20084;-65
2022/02/12 05:16:02;;;;;;;9.32;2.45;;;;;;;;;;5011920;28;20037;-65
2022/02/12 05:18:29;;;;;;;8.48;3.60;;;;;;;;;;5011667;28;20045;-66
2022/02/12 05:20:56;;;;;;;5.63;2.90;;;;;;;;;;5011663;28;20073;-65
2022/02/12 05:23:22;;;;;;;7.22;2.85;;;;;;;;;;5011166;28;20053;-65
2022/02/12 05:25:48;;;;;;;8.90;2.72;;;;;;;;;;5011257;28;20041;-65
2022/02/12 05:28:14;;;;;;;6.43;2.78;;;;;;;;;;5011502;28;20414;-65
2022/02/12 05:30:43;;;;;;;5.25;2.25;;;;;;;;;;5011433;28;20034;-65
2022/02/12 05:33:09;;;;;;;8.10;2.53;;;;;;;;;;5011506;28;20034;-65
2022/02/12 05:35:36;;;;;;;5.68;2.30;;;;;;;;;;5011336;28;20041;-65
2022/02/12 05:38:02;;;;;;;12.02;4.35;;;;;;;;;;5011421;28;20033;-65
2022/02/12 05:40:28;;;;;;;5.75;2.80;;;;;;;;;;5011410;28;20030;-66
2022/02/12 05:42:55;;;;;;;6.47;2.08;;;;;;;;;;5011713;28;20045;-65
2022/02/12 05:45:21;;;;;;;12.02;3.00;;;;;;;;;;5011184;28;20406;-65
2022/02/12 05:47:48;;;;;;;5.47;2.38;;;;;;;;;;5011436;28;20061;-65
2022/02/12 05:50:14;;;;;;;6.15;2.00;;;;;;;;;;5011431;28;20032;-65
2022/02/12 05:52:40;;;;;;;7.25;2.88;;;;;;;;;;5011171;28;20022;-65
2022/02/12 05:55:06;;;;;;;6.03;2.42;;;;;;;;;;5011207;28;20026;-65
2022/02/12 05:57:32;;;;;;;8.05;2.42;;;;;;;;;;5011150;28;20034;-65
2022/02/12 05:59:58;;;;;;;4.95;2.28;;;;;;;;;;5010943;28;20540;-65
2022/02/12 06:02:24;;;;;;;6.60;3.17;;;;;;;;;;5011054;28;20545;-65
2022/02/12 06:04:50;;;;;;;6.45;2.88;;;;;;;;;;5011046;28;20028;-65
2022/02/12 06:07:17;;;;;;;4.88;1.98;;;;;;;;;;5011029;28;20072;-65
2022/02/12 06:09:43;;;;;;;5.53;2.42;;;;;;;;;;5010774;28;20022;-65
2022/02/12 06:12:09;;;;;;;7.70;2.60;;;;;;;;;;5010930;28;20467;-65
2022/02/12 06:14:35;;;;;;;5.95;2.25;;;;;;;;;;5011129;28;20083;-65
2022/02/12 06:17:01;;;;;;;7.63;2.97;;;;;;;;;;5010901;28;20053;-65
2022/02/12 06:19:27;;;;;;;7.82;2.80;;;;;;;;;;5010977;28;20026;-65
2022/02/12 06:21:54;;;;;;;7.38;3.13;;;;;;;;;;5010971;28;20430;-65
2022/02/12 06:24:20;;;;;;;7.03;2.35;;;;;;;;;;5010728;28;20447;-65
2022/02/12 06:26:51;;;;;;;9.48;3.50;;;;;;;;;;5011087;28;20018;-65
2022/02/12 06:29:20;;;;;;;13.25;4.28;;;;;;;;;;5010888;28;20020;-65
2022/02/12 06:31:46;;;;;;;8.32;3.10;;;;;;;;;;5010676;28;20494;-65
2022/02/12 06:34:12;;;;;;;6.32;2.40;;;;;;;;;;5010822;28;20026;-65
2022/02/12 06:36:38;;;;;;;6.65;2.05;;;;;;;;;;5010667;28;20034;-65
2022/02/12 06:39:04;;;;;;;6.38;2.60;;;;;;;;;;5012630;28;20014;-65
2022/02/12 06:41:30;;;;;;;7.13;2.70;;;;;;;;;;5014626;28;20080;-65
2022/02/12 06:43:56;;;;;;;6.35;2.28;;;;;;;;;;5014362;28;20050;-65
2022/02/12 06:46:22;;;;;;;6.93;3.15;;;;;;;;;;5014052;28;20117;-65
2022/02/12 06:48:48;;;;;;;9.75;3.13;;;;;;;;;;5014423;28;20374;-65
2022/02/12 06:51:17;;;;;;;12.95;4.13;;;;;;;;;;5014245;28;20387;-65
2022/02/12 06:53:43;;;;;;;6.45;2.80;;;;;;;;;;5014328;28;20394;-65
2022/02/12 06:56:09;;;;;;;6.97;2.78;;;;;;;;;;5014241;28;20116;-65
2022/02/12 06:58:36;;;;;;;8.68;2.70;;;;;;;;;;5014052;28;20018;-65
2022/02/12 07:01:02;;;;;;;12.05;2.50;;;;;;;;;;5014049;28;20075;-65
2022/02/12 07:03:28;;;;;;;9.95;3.75;;;;;;;;;;5014183;28;20033;-66
2022/02/12 07:05:54;;;;;;;19.15;6.25;;;;;;;;;;5014102;28;20474;-65
2022/02/12 07:08:20;;;;;;;12.68;4.65;;;;;;;;;;5013716;28;20526;-66
2022/02/12 07:10:46;;;;;;;6.88;2.42;;;;;;;;;;5013838;28;20018;-66
2022/02/12 07:13:13;;;;;;;9.35;4.15;;;;;;;;;;5014159;28;20356;-66
2022/02/12 07:15:39;;;;;;;10.93;5.47;;;;;;;;;;5013337;28;20490;-64
2022/02/12 07:18:05;;;;;;;6.75;3.10;;;;;;;;;;5013732;28;20030;-64
2022/02/12 07:20:31;;;;;;;11.02;3.40;;;;;;;;;;5013829;28;20149;-65
2022/02/12 07:22:58;;;;;;;9.32;3.63;;;;;;;;;;5013364;28;20022;-65
2022/02/12 07:25:24;;;;;;;8.63;3.55;;;;;;;;;;5013723;28;20021;-65
2022/02/12 07:27:54;;;;;;;9.07;4.00;;;;;;;;;;5013370;28;20026;-65
2022/02/12 07:30:20;;;;;;;7.10;3.35;;;;;;;;;;5013478;28;20457;-64
2022/02/12 07:32:46;;;;;;;10.20;3.30;;;;;;;;;;5013294;28;20447;-64
2022/02/12 07:35:13;;;;;;;7.00;2.70;;;;;;;;;;5013077;28;20069;-65
2022/02/12 07:37:40;;;;;;;6.38;2.50;;;;;;;;;;5013013;28;20463;-66
2022/02/12 07:40:06;;;;;;;5.38;3.03;;;;;;;;;;5013145;28;20042;-65
2022/02/12 07:42:32;;;;;;;6.20;2.80;;;;;;;;;;5012942;28;20026;-66
2022/02/12 07:44:58;;;;;;;10.55;4.60;;;;;;;;;;5012608;28;20473;-64
2022/02/12 07:47:24;;;;;;;8.48;3.40;;;;;;;;;;5013058;28;20477;-65
2022/02/12 07:49:51;;;;;;;7.20;4.18;;;;;;;;;;5012955;28;20124;-65
2022/02/12 07:52:17;;;;;;;8.20;3.67;;;;;;;;;;5013111;28;20442;-65
2022/02/12 07:54:44;;;;;;;9.57;3.70;;;;;;;;;;5012665;28;20506;-68
2022/02/12 07:57:10;;;;;;;10.13;3.63;;;;;;;;;;5013038;28;20038;-64
2022/02/12 07:59:36;;;;;;;8.13;3.45;;;;;;;;;;5012821;28;20524;-65
2022/02/12 08:02:02;;;;;;;7.18;3.38;;;;;;;;;;5012855;28;20081;-64
2022/02/12 08:04:28;;;;;;;10.02;3.65;;;;;;;;;;5012796;28;20026;-65
2022/02/12 08:09:39;;;;;;;19.20;6.80;;;;;;;;;;5012548;28;20037;-65
2022/02/12 08:12:13;;;;;;;9.70;4.50;;;;;;;;;;5012775;28;20052;-64
2022/02/12 08:14:43;;;;;;;10.85;4.95;;;;;;;;;;5012560;28;20486;-64
2022/02/12 08:17:09;;;;;;;10.48;4.32;;;;;;;;;;5012282;28;20449;-65
2022/02/12 08:19:37;;;;;;;22.02;8.48;;;;;;;;;;5012226;28;20037;-65
2022/02/12 08:22:03;;;;;;;7.35;3.50;;;;;;;;;;5011300;28;20041;-65
2022/02/12 08:24:29;;;;;;;9.25;3.38;;;;;;;;;;5012554;28;20029;-65
2022/02/12 08:26:55;;;;;;;8.77;3.88;;;;;;;;;;5012740;28;20496;-65
2022/02/12 08:29:21;;;;;;;8.68;3.70;;;;;;;;;;5011229;28;20402;-66
2022/02/12 08:31:47;;;;;;;6.68;3.05;;;;;;;;;;5012117;28;20109;-65
2022/02/12 08:34:15;;;;;;;10.30;3.85;;;;;;;;;;5012238;28;20539;-65
2022/02/12 08:36:41;;;;;;;7.05;3.60;;;;;;;;;;5011774;28;20402;-65
2022/02/12 08:39:07;;;;;;;10.13;5.03;;;;;;;;;;5011979;28;20030;-64
2022/02/12 08:41:33;;;;;;;9.90;3.90;;;;;;;;;;5012036;28;20149;-65
2022/02/12 08:43:59;;;;;;;8.77;3.80;;;;;;;;;;5011856;28;20140;-65
2022/02/12 08:46:25;;;;;;;8.82;3.72;;;;;;;;;;5011676;28;20053;-65
2022/02/12 08:48:51;;;;;;;8.82;3.63;;;;;;;;;;5011724;28;20121;-65
2022/02/12 08:51:17;;;;;;;15.30;6.22;;;;;;;;;;5011671;28;20033;-65
2022/02/12 08:53:44;;;;;;;18.55;8.38;;;;;;;;;;5011382;28;20029;-65
2022/02/12 08:56:10;;;;;;;12.10;5.00;;;;;;;;;;5011718;28;20402;-65
2022/02/12 08:58:36;;;;;;;11.32;5.13;;;;;;;;;;5011781;28;20442;-65
2022/02/12 09:01:02;;;;;;;10.75;5.90;;;;;;;;;;5011112;28;20040;-65
2022/02/12 09:03:28;;;;;;;16.88;7.13;;;;;;;;;;5011500;28;20104;-66
2022/02/12 09:05:55;;;;;;;12.32;6.15;;;;;;;;;;5011716;28;20061;-65
2022/02/12 09:08:21;;;;;;;12.85;5.93;;;;;;;;;;5011562;28;20032;-65
2022/02/12 09:10:47;;;;;;;11.57;5.47;;;;;;;;;;5011575;28;20516;-65
2022/02/12 09:13:13;;;;;;;9.48;4.43;;;;;;;;;;5011221;28;20033;-66
2022/02/12 09:15:39;;;;;;;14.63;6.55;;;;;;;;;;5011258;28;20044;-65
2022/02/12 09:18:05;;;;;;;11.13;5.60;;;;;;;;;;5011397;28;20065;-65
2022/02/12 09:20:31;;;;;;;9.55;5.65;;;;;;;;;;5011600;28;20025;-64
2022/02/12 09:22:57;;;;;;;11.27;5.53;;;;;;;;;;5011552;28;20932;-65
2022/02/12 09:25:23;;;;;;;12.77;4.88;;;;;;;;;;5011271;28;20037;-65
2022/02/12 09:27:49;;;;;;;9.73;4.90;;;;;;;;;;5011599;28;20095;-65
2022/02/12 09:30:16;;;;;;;9.07;4.97;;;;;;;;;;5011302;28;20022;-65
2022/02/12 09:32:42;;;;;;;10.10;4.57;;;;;;;;;;5011189;28;20057;-65
2022/02/12 09:35:08;;;;;;;11.55;4.40;;;;;;;;;;5011166;28;20375;-65
2022/02/12 09:37:34;;;;;;;11.30;4.68;;;;;;;;;;5011322;28;20025;-65
2022/02/12 09:40:00;;;;;;;8.35;4.75;;;;;;;;;;5011215;28;20467;-65
2022/02/12 09:42:26;;;;;;;16.23;5.30;;;;;;;;;;5011066;28;20058;-65
2022/02/12 09:44:52;;;;;;;9.10;5.03;;;;;;;;;;5011138;28;20046;-65
2022/02/12 09:47:30;;;;;;;8.20;4.80;;;;;;;;;;5011102;28;20034;-65
2022/02/12 09:49:57;;;;;;;12.07;5.05;;;;;;;;;;5011505;28;20018;-66
2022/02/12 09:52:26;;;;;;;14.10;5.22;;;;;;;;;;5010961;28;20022;-65
2022/02/12 09:54:52;;;;;;;8.80;5.13;;;;;;;;;;5010704;28;20034;-65
2022/02/12 09:57:18;;;;;;;9.20;5.60;;;;;;;;;;5011191;28;20081;-65
2022/02/12 09:59:44;;;;;;;17.15;7.43;;;;;;;;;;5010643;28;20037;-65
2022/02/12 10:02:17;;;;;;;17.52;9.38;;;;;;;;;;5010736;28;20045;-65
2022/02/12 10:04:43;;;;;;;19.52;8.15;;;;;;;;;;5010902;28;20030;-65
2022/02/12 10:07:22;;;;;;;12.20;6.25;;;;;;;;;;5010970;28;20065;-65
2022/02/12 10:09:48;;;;;;;11.13;5.18;;;;;;;;;;5010699;28;20038;-65
2022/02/12 10:12:22;;;;;;;10.98;5.78;;;;;;;;;;5011796;28;20145;-65
2022/02/12 10:14:48;;;;;;;12.30;5.38;;;;;;;;;;5014704;28;20084;-66
2022/02/12 10:17:20;;;;;;;11.52;5.63;;;;;;;;;;5014340;28;20517;-65
2022/02/12 10:19:47;;;;;;;8.77;5.78;;;;;;;;;;5014449;28;20124;-65
2022/02/12 10:22:15;;;;;;;9.07;5.50;;;;;;;;;;5014514;28;20033;-65
2022/02/12 10:24:45;;;;;;;10.27;6.20;;;;;;;;;;5014377;28;20454;-66
2022/02/12 10:27:11;;;;;;;11.75;5.60;;;;;;;;;;5014360;28;20029;-65
2022/02/12 10:29:37;;;;;;;13.75;5.97;;;;;;;;;;5014531;28;20033;-65
2022/02/12 10:32:03;;;;;;;12.75;6.55;;;;;;;;;;5014082;28;20032;-65
2022/02/12 10:34:40;;;;;;;9.95;5.97;;;;;;;;;;5014222;28;20049;-65
2022/02/12 10:37:06;;;;;;;9.43;5.20;;;;;;;;;;5014548;28;20066;-65
2022/02/12 10:39:38;;;;;;;12.68;6.55;;;;;;;;;;5014239;28;20101;-65
2022/02/12 10:42:07;;;;;;;11.40;6.35;;;;;;;;;;5014238;28;20474;-65
2022/02/12 10:44:34;;;;;;;10.63;6.55;;;;;;;;;;5013782;28;20037;-65
2022/02/12 10:47:00;;;;;;;12.43;7.03;;;;;;;;;;5013900;28;20034;-65
2022/02/12 10:49:26;;;;;;;10.95;6.30;;;;;;;;;;5014213;28;20030;-65
2022/02/12 10:51:53;;;;;;;11.07;6.45;;;;;;;;;;5014492;28;20026;-65
2022/02/12 10:54:19;;;;;;;11.95;7.28;;;;;;;;;;5013778;28;20034;-65
2022/02/12 10:56:46;;;;;;;12.63;6.40;;;;;;;;;;5013892;28;20498;-66
2022/02/12 10:59:13;;;;;;;12.80;6.60;;;;;;;;;;5014019;28;20398;-65
2022/02/12 11:01:39;;;;;;;14.15;6.50;;;;;;;;;;5014145;28;20045;-65
2022/02/12 11:04:06;;;;;;;18.52;8.45;;;;;;;;;;5013875;28;20029;-65
2022/02/12 11:06:32;;;;;;;19.40;8.40;;;;;;;;;;5014077;28;20104;-65
2022/02/12 11:08:58;;;;;;;10.23;6.15;;;;;;;;;;5013849;28;20026;-67
2022/02/12 11:11:25;;;;;;;15.07;8.27;;;;;;;;;;5013947;28;20030;-66
2022/02/12 11:13:52;;;;;;;13.23;7.35;;;;;;;;;;5013756;28;20041;-66
2022/02/12 11:16:19;;;;;;;12.25;6.97;;;;;;;;;;5013286;28;20049;-66
2022/02/12 11:18:45;;;;;;;13.23;6.95;;;;;;;;;;5013025;28;20026;-66
2022/02/12 11:21:11;;;;;;;14.13;6.72;;;;;;;;;;5013228;28;20119;-66
2022/02/12 11:23:37;;;;;;;13.25;7.15;;;;;;;;;;5012832;28;20030;-66
2022/02/12 11:26:03;;;;;;;24.33;11.82;;;;;;;;;;5013026;28;20034;-66
2022/02/12 11:28:30;;;;;;;15.60;7.30;;;;;;;;;;5013238;28;20045;-65
2022/02/12 11:31:16;;;;;;;13.65;7.30;;;;;;;;;;5013146;28;20026;-65
2022/02/12 11:34:01;;;;;;;12.50;6.65;;;;;;;;;;5011935;28;20041;-66
2022/02/12 11:36:27;;;;;;;8.50;5.40;;;;;;;;;;5012783;28;20038;-65
2022/02/12 11:39:04;;;;;;;16.00;7.90;;;;;;;;;;5013520;28;20066;-66
2022/02/12 11:41:30;;;;;;;12.98;6.70;;;;;;;;;;5012869;28;20030;-65
2022/02/12 11:43:56;;;;;;;14.43;7.13;;;;;;;;;;5012848;28;20022;-65
2022/02/12 11:46:41;;;;;;;9.90;5.45;;;;;;;;;;5012641;28;20085;-65
2022/02/12 11:49:33;;;;;;;13.20;6.45;;;;;;;;;;5012746;28;20022;-66
2022/02/12 11:52:02;;;;;;;16.25;8.93;;;;;;;;;;5011127;28;20449;-65
2022/02/12 11:54:56;;;;;;;13.60;6.53;;;;;;;;;;5012916;28;20482;-65
2022/02/12 11:57:28;;;;;;;16.58;10.75;;;;;;;;;;5013190;28;20423;-65
2022/02/12 12:00:06;;;;;;;16.98;9.32;;;;;;;;;;5012868;28;20117;-65
2022/02/12 12:02:38;;;;;;;17.83;8.90;;;;;;;;;;5012307;28;20021;-64
2022/02/12 12:05:16;;;;;;;20.77;9.90;;;;;;;;;;5012730;28;20080;-66
2022/02/12 12:08:01;;;;;;;12.10;7.15;;;;;;;;;;5012865;28;20026;-65
2022/02/12 12:10:28;;;;;;;13.35;7.80;;;;;;;;;;5012491;28;20025;-65
2022/02/12 12:13:20;;;;;;;12.35;6.75;;;;;;;;;;5011410;28;20552;-65
2022/02/12 12:15:50;;;;;;;13.53;7.50;;;;;;;;;;5013713;28;20053;-65
2022/02/12 12:18:16;;;;;;;17.75;9.45;;;;;;;;;;5010959;28;20034;-65
2022/02/12 12:20:44;;;;;;;15.35;8.23;;;;;;;;;;5011820;28;20028;-65
2022/02/12 12:23:14;;;;;;;16.42;9.43;;;;;;;;;;5012329;28;20104;-65
2022/02/12 12:26:06;;;;;;;8.95;5.13;;;;;;;;;;5012620;28;20088;-66
2022/02/12 12:28:40;;;;;;;11.75;6.60;;;;;;;;;;5012524;28;20050;-64
2022/02/12 12:31:16;;;;;;;8.85;5.65;;;;;;;;;;5012213;28;20052;-65
2022/02/12 12:33:43;;;;;;;15.52;8.60;;;;;;;;;;5011897;28;20030;-65
2022/02/12 12:36:11;;;;;;;12.73;7.38;;;;;;;;;;5010842;28;20041;-65
2022/02/12 12:38:38;;;;;;;17.10;8.73;;;;;;;;;;5011874;28;20026;-65
2022/02/12 12:41:23;;;;;;;13.02;8.43;;;;;;;;;;5011784;28;20029;-65
2022/02/12 12:44:05;;;;;;;10.68;5.90;;;;;;;;;;5011981;28;20052;-65
2022/02/12 12:46:31;;;;;;;;;;;;;;;;;;5011800;28;20184;-65
2022/02/12 12:48:57;;;;;;;12.02;6.93;;;;;;;;;;5011747;28;20371;-65
2022/02/12 12:51:23;;;;;;;9.40;5.78;;;;;;;;;;5012177;28;20026;-66
2022/02/12 12:53:49;;;;;;;16.60;8.00;;;;;;;;;;5011831;28;20030;-66
2022/02/12 12:56:24;;;;;;;10.27;6.65;;;;;;;;;;5011714;28;20103;-65
2022/02/12 12:59:03;;;;;;;11.77;5.22;;;;;;;;;;5011923;28;20026;-65
2022/02/12 13:01:29;;;;;;;11.13;5.55;;;;;;;;;;5011705;28;20021;-65
2022/02/12 13:03:59;;;;;;;11.27;6.20;;;;;;;;;;5011454;28;20057;-65
2022/02/12 13:06:25;;;;;;;15.57;9.32;;;;;;;;;;5011506;28;20029;-65
2022/02/12 13:08:52;;;;;;;14.55;8.77;;;;;;;;;;5011140;28;20081;-65
2022/02/12 13:11:33;;;;;;;8.82;5.75;;;;;;;;;;5011365;28;20079;-65
2022/02/12 13:14:06;;;;;;;9.75;6.18;;;;;;;;;;5011250;28;20052;-65
2022/02/12 13:16:36;;;;;;;10.15;6.40;;;;;;;;;;5011122;28;20037;-65
2022/02/12 13:19:03;;;;;;;8.80;5.60;;;;;;;;;;5011362;28;20022;-66
2022/02/12 13:21:30;;;;;;;8.48;5.47;;;;;;;;;;5011394;28;20033;-66
2022/02/12 13:24:06;;;;;;;11.32;6.28;;;;;;;;;;5011665;28;20026;-65
2022/02/12 13:26:33;;;;;;;14.63;6.90;;;;;;;;;;5011144;28;20290;-66
2022/02/12 13:28:59;;;;;;;13.27;8.80;;;;;;;;;;5011135;28;20029;-65
2022/02/12 13:31:26;;;;;;;10.82;6.80;;;;;;;;;;5011377;28;20033;-65
2022/02/12 13:34:02;;;;;;;30.65;12.27;;;;;;;;;;5011462;28;20366;-65
2022/02/12 13:36:28;;;;;;;10.65;6.70;;;;;;;;;;5010947;28;20429;-65
2022/02/12 13:39:04;;;;;;;11.45;7.40;;;;;;;;;;5011063;28;20025;-65
2022/02/12 13:41:31;;;;;;;12.38;6.93;;;;;;;;;;5010956;28;20034;-65
2022/02/12 13:43:57;;;;;;;10.90;6.28;;;;;;;;;;5010906;28;20029;-65
2022/02/12 13:46:23;;;;;;;11.45;6.72;;;;;;;;;;5011077;28;20132;-65
2022/02/12 13:48:49;;;;;;;10.90;6.28;;;;;;;;;;5010955;28;20033;-65
2022/02/12 13:51:21;;;;;;;11.15;6.70;;;;;;;;;;5011099;28;20026;-65
2022/02/12 13:53:49;;;;;;;12.35;6.95;;;;;;;;;;5011169;28;20022;-65
2022/02/12 13:56:15;;;;;;;14.57;7.72;;;;;;;;;;5011071;28;20033;-65
2022/02/12 13:58:44;;;;;;;12.70;6.68;;;;;;;;;;5010937;28;20033;-66
2022/02/12 14:01:12;;;;;;;13.02;7.00;;;;;;;;;;5010963;28;20057;-66
2022/02/12 14:03:43;;;;;;;11.95;6.28;;;;;;;;;;5011092;28;20564;-66
2022/02/12 14:06:09;;;;;;;14.82;8.38;;;;;;;;;;5011149;28;20037;-65
2022/02/12 14:08:36;;;;;;;19.42;9.77;;;;;;;;;;5011098;28;20524;-65
2022/02/12 14:11:02;;;;;;;13.60;8.10;;;;;;;;;;5011197;28;20065;-65
2022/02/12 14:13:28;;;;;;;11.90;7.38;;;;;;;;;;5011053;28;20433;-65
2022/02/12 14:15:57;;;;;;;12.30;6.65;;;;;;;;;;5010554;28;20077;-66
2022/02/12 14:18:23;;;;;;;16.05;9.18;;;;;;;;;;5009739;28;20036;-65
2022/02/12 14:20:49;;;;;;;13.23;7.40;;;;;;;;;;5010700;28;20544;-66
2022/02/12 14:23:17;;;;;;;10.02;6.70;;;;;;;;;;5010103;28;20040;-65
2022/02/12 14:25:43;;;;;;;16.08;9.73;;;;;;;;;;5010739;28;20026;-65
2022/02/12 14:28:13;;;;;;;17.67;10.38;;;;;;;;;;5010884;28;20041;-66
2022/02/12 14:30:40;;;;;;;11.63;6.50;;;;;;;;;;5010881;28;20037;-66
2022/02/12 14:33:06;;;;;;;11.70;7.18;;;;;;;;;;5010787;28;20374;-65
2022/02/12 14:35:32;;;;;;;12.88;7.53;;;;;;;;;;5010559;28;20081;-65
2022/02/12 14:38:00;;;;;;;18.65;9.45;;;;;;;;;;5010472;28;20052;-65
2022/02/12 14:40:26;;;;;;;20.85;8.43;;;;;;;;;;5010750;28;20030;-65
2022/02/12 14:42:53;;;;;;;14.88;8.52;;;;;;;;;;5010169;28;20399;-65
2022/02/12 14:45:19;;;;;;;11.45;6.45;;;;;;;;;;5010148;28;20096;-65
2022/02/12 14:47:45;;;;;;;9.30;4.80;;;;;;;;;;5010792;28;20105;-65